createdAt,value
2022-10-02T00:03:08.741Z,30.23
2022-10-02T00:06:42.277Z,36.90
2022-10-02T00:13:32.657Z,29.20
2022-10-02T00:20:26.989Z,31.80
2022-10-02T00:23:57.250Z,35.50
2022-10-02T00:27:49.759Z,24.90
2022-10-02T00:31:31.733Z,35.35
2022-10-02T00:38:00.662Z,35.95
2022-10-02T00:41:55.261Z,21.92
2022-10-02T00:49:22.644Z,36.03
2022-10-02T00:52:42.774Z,28.05
2022-10-02T00:56:12.831Z,35.10
2022-10-02T01:04:02.112Z,27.95
2022-10-02T01:11:38.639Z,30.05
2022-10-02T01:14:31.646Z,31.98
2022-10-02T01:28:59.333Z,21.45
2022-10-02T01:31:52.817Z,30.67
2022-10-02T01:35:12.425Z,17.55
2022-10-02T01:39:16.152Z,30.92
2022-10-02T01:42:44.955Z,36.53
2022-10-02T01:46:15.411Z,31.90
2022-10-02T01:49:50.818Z,29.85
2022-10-02T01:53:09.920Z,30.20
2022-10-02T01:56:49.191Z,37.13
2022-10-02T02:07:43.980Z,25.08
2022-10-02T02:14:41.686Z,23.50
2022-10-02T02:17:49.966Z,34.83
2022-10-02T02:21:53.519Z,22.70
2022-10-02T02:28:47.329Z,23.55
2022-10-02T02:32:01.722Z,21.80
2022-10-02T02:39:56.912Z,18.67
2022-10-02T02:43:57.895Z,25.02
2022-10-02T02:47:19.824Z,25.90
2022-10-02T02:50:53.450Z,14.63
2022-10-02T02:54:24.481Z,15.50
2022-10-02T02:57:46.362Z,18.85
2022-10-02T03:00:59.906Z,12.98
2022-10-02T03:04:29.946Z,22.10
2022-10-02T03:08:09.749Z,22.17
2022-10-02T03:11:38.658Z,13.98
2022-10-02T03:15:17.504Z,14.40
2022-10-02T03:35:04.469Z,16.15
2022-10-02T03:42:04.347Z,17.33
2022-10-02T03:45:51.762Z,18.08
2022-10-02T03:49:36.632Z,15.52
2022-10-02T03:53:04.504Z,17.42
2022-10-02T03:56:42.357Z,15.25
2022-10-02T04:03:25.600Z,21.58
2022-10-02T04:06:48.052Z,23.73
2022-10-02T04:10:27.140Z,19.50
2022-10-02T04:13:46.263Z,16.00
2022-10-02T04:17:01.118Z,21.65
2022-10-02T04:20:16.520Z,17.42
2022-10-02T04:23:41.005Z,12.50
2022-10-02T04:26:56.228Z,14.90
2022-10-02T04:30:55.528Z,17.67
2022-10-02T04:40:50.075Z,18.33
2022-10-02T04:43:51.932Z,20.67
2022-10-02T04:47:15.084Z,13.15
2022-10-02T04:50:32.065Z,16.05
2022-10-02T04:54:00.567Z,18.80
2022-10-02T04:57:53.746Z,18.13
2022-10-02T05:01:52.011Z,18.80
2022-10-02T05:05:25.510Z,14.15
2022-10-02T05:08:44.856Z,13.80
2022-10-02T05:12:27.585Z,16.55
2022-10-02T05:16:08.984Z,10.45
2022-10-02T05:19:40.678Z,15.32
2022-10-02T05:23:24.319Z,11.95
2022-10-02T05:26:50.205Z,14.05
2022-10-02T05:30:29.758Z,18.73
2022-10-02T05:34:09.037Z,15.35
2022-10-02T05:40:55.842Z,20.95
2022-10-02T05:44:44.967Z,15.80
2022-10-02T05:48:02.026Z,15.77
2022-10-02T05:51:33.008Z,19.25
2022-10-02T06:05:23.122Z,18.60
2022-10-02T06:08:45.333Z,15.52
2022-10-02T06:13:10.547Z,13.10
2022-10-02T06:19:28.822Z,9.63
2022-10-02T06:22:39.169Z,15.43
2022-10-02T06:25:59.638Z,20.40
2022-10-02T06:29:35.909Z,20.92
2022-10-02T06:33:19.338Z,16.23
2022-10-02T06:37:03.389Z,17.45
2022-10-02T06:40:31.671Z,15.15
2022-10-02T06:44:22.995Z,13.52
2022-10-02T06:52:03.475Z,19.58
2022-10-02T06:55:46.172Z,18.45
2022-10-02T06:59:14.230Z,20.05
2022-10-02T07:02:54.579Z,10.73
2022-10-02T07:06:26.481Z,19.35
2022-10-02T07:10:09.823Z,22.02
2022-10-02T07:13:40.544Z,22.65
2022-10-02T07:18:37.239Z,24.65
2022-10-02T07:24:08.456Z,17.38
2022-10-02T07:27:27.893Z,14.15
2022-10-02T07:31:32.982Z,25.95
2022-10-02T07:34:35.817Z,31.88
2022-10-02T07:37:18.710Z,22.13
2022-10-02T07:40:02.102Z,17.20
2022-10-02T07:42:56.679Z,15.63
2022-10-02T07:50:27.748Z,21.90
2022-10-02T07:53:42.204Z,26.80
2022-10-02T07:57:09.673Z,28.27
2022-10-02T08:00:44.286Z,16.90
2022-10-02T08:04:05.091Z,19.25
2022-10-02T08:10:42.188Z,22.85
2022-10-02T08:13:20.488Z,19.88
2022-10-02T08:19:40.706Z,19.60
2022-10-02T08:22:54.170Z,19.80
2022-10-02T08:26:35.801Z,23.48
2022-10-02T08:30:15.721Z,18.80
2022-10-02T08:33:29.305Z,23.67
2022-10-02T08:37:12.877Z,18.17
2022-10-02T08:40:19.949Z,18.23
2022-10-02T08:43:45.148Z,16.10
2022-10-02T08:46:58.594Z,15.63
2022-10-02T08:50:15.848Z,16.73
2022-10-02T08:53:18.727Z,15.80
2022-10-02T08:56:03.448Z,14.15
2022-10-02T08:59:05.482Z,16.30
2022-10-02T09:01:59.809Z,13.30
2022-10-02T09:05:01.082Z,15.63
2022-10-02T09:08:36.594Z,19.92
2022-10-02T09:12:03.925Z,21.52
2022-10-02T09:16:07.322Z,30.42
2022-10-02T09:19:27.828Z,18.30
2022-10-02T09:22:59.384Z,16.63
2022-10-02T09:26:17.238Z,14.95
2022-10-02T09:30:09.664Z,10.13
2022-10-02T09:34:08.040Z,9.63
2022-10-02T09:41:13.724Z,17.00
2022-10-02T09:44:29.042Z,12.18
2022-10-02T09:48:05.375Z,10.25
2022-10-02T09:55:07.191Z,9.55
2022-10-02T09:59:02.791Z,9.80
2022-10-02T10:02:34.003Z,7.80
2022-10-02T10:06:30.918Z,10.50
2022-10-02T10:10:07.384Z,14.30
2022-10-02T10:13:51.726Z,9.25
2022-10-02T10:17:59.452Z,8.55
2022-10-02T10:21:40.885Z,7.88
2022-10-02T10:28:49.166Z,7.82
2022-10-02T10:32:26.146Z,6.18
2022-10-02T10:36:02.899Z,9.63
2022-10-02T10:39:05.161Z,6.63
2022-10-02T10:43:06.665Z,6.53
2022-10-02T10:46:17.882Z,6.63
2022-10-02T10:49:11.525Z,8.20
2022-10-02T10:51:48.280Z,5.18
2022-10-02T10:54:40.568Z,10.18
2022-10-02T10:57:17.700Z,3.33
2022-10-02T11:00:17.352Z,7.30
2022-10-02T11:03:24.252Z,6.63
2022-10-02T11:06:17.318Z,10.27
2022-10-02T11:09:26.538Z,6.05
2022-10-02T11:12:12.706Z,11.15
2022-10-02T11:14:58.455Z,4.90
2022-10-02T11:18:41.227Z,8.52
2022-10-02T11:37:12.837Z,7.38
2022-10-02T11:41:38.273Z,7.40
2022-10-02T11:45:19.613Z,9.70
2022-10-02T11:49:06.804Z,11.18
2022-10-02T11:53:01.220Z,7.95
2022-10-02T11:56:27.654Z,8.05
2022-10-02T12:07:09.210Z,7.22
2022-10-02T12:11:23.187Z,12.15
2022-10-02T12:15:13.642Z,11.38
2022-10-02T12:19:10.292Z,6.75
2022-10-02T12:22:44.146Z,8.18
2022-10-02T12:26:18.599Z,5.78
2022-10-02T12:29:38.808Z,7.20
2022-10-02T12:33:14.709Z,6.35
2022-10-02T12:43:51.770Z,11.98
2022-10-02T12:47:36.176Z,8.80
2022-10-02T12:51:28.254Z,3.42
2022-10-02T12:59:25.035Z,6.38
2022-10-02T13:06:34.362Z,5.88
2022-10-02T13:10:01.826Z,8.25
2022-10-02T13:13:33.477Z,10.00
2022-10-02T13:16:49.370Z,5.72
2022-10-02T13:20:07.570Z,4.47
2022-10-02T13:23:38.767Z,7.93
2022-10-02T13:27:31.534Z,4.80
2022-10-02T13:30:37.925Z,6.95
2022-10-02T13:34:14.027Z,8.18
2022-10-02T13:41:19.264Z,7.10
2022-10-02T13:52:06.075Z,4.47
2022-10-02T14:10:25.119Z,8.85
2022-10-02T14:17:28.044Z,8.80
2022-10-02T14:20:41.930Z,5.50
2022-10-02T14:24:41.635Z,11.60
2022-10-02T14:28:21.683Z,4.88
2022-10-02T14:32:11.292Z,4.72
2022-10-02T14:35:59.796Z,8.60
2022-10-02T14:38:52.120Z,7.47
2022-10-02T14:41:48.550Z,5.50
2022-10-02T14:44:43.251Z,8.43
2022-10-02T14:47:34.224Z,5.50
2022-10-02T14:50:25.289Z,3.80
2022-10-02T14:53:12.640Z,8.45
2022-10-02T14:56:08.401Z,8.45
2022-10-02T14:58:50.783Z,8.55
2022-10-02T15:01:52.637Z,5.43
2022-10-02T15:08:43.323Z,5.47
2022-10-02T15:12:31.132Z,8.82
2022-10-02T15:16:02.967Z,5.05
2022-10-02T15:19:15.681Z,6.35
2022-10-02T15:26:40.121Z,7.05
2022-10-02T15:29:57.981Z,6.70
2022-10-02T15:37:27.799Z,6.40
2022-10-02T15:40:56.980Z,5.88
2022-10-02T15:44:37.257Z,6.32
2022-10-02T15:48:20.219Z,7.45
2022-10-02T15:51:44.867Z,8.65
2022-10-02T15:54:27.012Z,4.68
2022-10-02T15:57:08.730Z,7.80
2022-10-02T15:59:50.968Z,6.32
2022-10-02T16:02:36.501Z,5.35
2022-10-02T16:05:22.885Z,5.63
2022-10-02T16:08:17.958Z,11.40
2022-10-02T16:11:07.681Z,3.65
2022-10-02T16:13:48.821Z,5.47
2022-10-02T16:16:32.622Z,9.02
2022-10-02T16:19:14.436Z,4.38
2022-10-02T16:22:01.602Z,6.10
2022-10-02T16:24:46.044Z,6.78
2022-10-02T16:27:32.536Z,4.15
2022-10-02T16:30:13.389Z,8.05
2022-10-02T16:33:02.741Z,9.80
2022-10-02T16:36:15.862Z,4.45
2022-10-02T16:38:58.356Z,4.88
2022-10-02T16:42:22.480Z,8.30
2022-10-02T16:45:53.623Z,3.08
2022-10-02T16:59:49.892Z,5.72
2022-10-02T17:06:55.933Z,3.80
2022-10-02T17:10:19.244Z,4.78
2022-10-02T17:13:27.639Z,5.53
2022-10-02T17:16:52.744Z,8.45
2022-10-02T17:20:03.692Z,7.68
2022-10-02T17:23:48.924Z,8.13
2022-10-02T17:27:14.984Z,13.40
2022-10-02T17:30:18.460Z,8.23
2022-10-02T17:33:46.268Z,7.68
2022-10-02T17:37:01.620Z,7.85
2022-10-02T17:40:32.569Z,6.15
2022-10-02T17:44:06.904Z,12.00
2022-10-02T17:47:31.135Z,5.53
2022-10-02T17:51:02.945Z,10.05
2022-10-02T17:54:36.063Z,15.88
2022-10-02T17:57:55.695Z,6.00
2022-10-02T18:01:15.849Z,8.30
2022-10-02T18:08:11.210Z,11.63
2022-10-02T18:11:17.298Z,13.15
2022-10-02T18:22:17.725Z,19.65
2022-10-02T18:25:27.611Z,15.57
2022-10-02T18:29:08.087Z,20.80
2022-10-02T18:32:29.503Z,11.90
2022-10-02T18:36:16.239Z,13.50
2022-10-02T18:39:50.121Z,17.52
2022-10-02T18:46:45.776Z,19.92
2022-10-02T18:50:15.813Z,14.35
2022-10-02T18:54:04.973Z,20.63
2022-10-02T18:57:14.219Z,13.70
2022-10-02T19:00:37.019Z,28.33
2022-10-02T19:07:33.091Z,37.20
2022-10-02T19:14:55.409Z,26.23
2022-10-02T19:21:20.098Z,30.65
2022-10-02T19:24:39.886Z,21.83
2022-10-02T19:28:20.984Z,30.27
2022-10-02T19:32:07.055Z,27.52
2022-10-02T19:35:24.117Z,29.10
2022-10-02T19:39:08.766Z,28.85
2022-10-02T19:42:21.068Z,22.48
2022-10-02T19:49:47.511Z,24.20
2022-10-02T19:54:11.204Z,23.08
2022-10-02T19:57:39.039Z,35.25
2022-10-02T20:01:00.135Z,34.55
2022-10-02T20:04:34.353Z,32.13
2022-10-02T20:11:06.406Z,38.75
2022-10-02T20:14:17.335Z,37.05
2022-10-02T20:21:26.666Z,34.35
2022-10-02T20:24:55.543Z,41.33
2022-10-02T20:28:31.899Z,34.28
2022-10-02T20:31:55.836Z,31.88
2022-10-02T20:35:06.235Z,41.20
2022-10-02T20:38:48.462Z,28.95
2022-10-02T20:45:52.403Z,43.05
2022-10-02T20:49:28.995Z,36.93
2022-10-02T20:53:05.373Z,37.00
2022-10-02T20:56:28.999Z,39.47
2022-10-02T21:00:52.767Z,41.53
2022-10-02T21:19:51.620Z,45.95
2022-10-02T21:27:19.870Z,52.30
2022-10-02T21:31:07.230Z,50.47
2022-10-02T21:34:29.575Z,52.60
2022-10-02T21:41:32.707Z,44.75
2022-10-02T21:44:53.359Z,48.85
2022-10-02T21:48:21.894Z,64.82
2022-10-02T21:51:58.742Z,51.35
2022-10-02T21:59:17.750Z,45.33
2022-10-02T22:06:42.132Z,45.35
2022-10-02T22:10:05.483Z,41.95
2022-10-02T22:17:35.496Z,39.72
2022-10-02T22:21:02.551Z,39.70
2022-10-02T22:24:36.526Z,54.55
2022-10-02T22:28:46.324Z,42.57
2022-10-02T22:32:30.381Z,47.30
2022-10-02T22:36:24.251Z,48.50
2022-10-02T22:39:34.010Z,47.92
2022-10-02T22:46:08.424Z,44.63
2022-10-02T22:50:10.652Z,48.65
2022-10-02T22:53:44.205Z,44.55
2022-10-02T22:58:38.071Z,53.65
2022-10-02T23:00:50.182Z,44.67
2022-10-02T23:04:10.543Z,56.27
2022-10-02T23:07:51.275Z,51.37
2022-10-02T23:11:41.038Z,41.95
2022-10-02T23:15:20.742Z,56.47
2022-10-02T23:18:27.002Z,55.58
2022-10-02T23:22:02.527Z,58.33
2022-10-02T23:25:30.183Z,61.67
2022-10-02T23:28:34.821Z,62.57
2022-10-02T23:32:05.922Z,58.55
2022-10-02T23:35:22.727Z,62.88
2022-10-02T23:38:49.661Z,58.87
2022-10-02T23:42:08.186Z,66.67
2022-10-02T23:45:58.719Z,50.73
2022-10-02T23:53:21.219Z,62.28
2022-10-02T23:56:19.316Z,52.43
2022-10-02T23:59:38.583Z,66.28
